sensor_id;sensor_type;location;lat;lon;timestamp;P1;durP1;ratioP1;P2;durP2;ratioP2
32874;SDS011;40468;42.128;24.750;2023-06-22T00:00:56;11.75;;;8.30;;
32874;SDS011;40468;42.128;24.750;2023-06-22T00:02:29;12.82;;;8.27;;
32874;SDS011;40468;42.128;24.750;2023-06-22T00:04:02;16.63;;;7.82;;
32874;SDS011;40468;42.128;24.750;2023-06-22T00:05:34;13.25;;;9.27;;
32874;SDS011;40468;42.128;24.750;2023-06-22T00:07:06;13.43;;;8.80;;
32874;SDS011;40468;42.128;24.750;2023-06-22T00:08:38;13.20;;;9.43;;
32874;SDS011;40468;42.128;24.750;2023-06-22T00:10:09;13.02;;;8.98;;
32874;SDS011;40468;42.128;24.750;2023-06-22T00:11:41;11.07;;;8.57;;
32874;SDS011;40468;42.128;24.750;2023-06-22T00:13:13;11.50;;;8.13;;
32874;SDS011;40468;42.128;24.750;2023-06-22T00:14:47;15.38;;;8.43;;
32874;SDS011;40468;42.128;24.750;2023-06-22T00:16:19;11.27;;;8.40;;
32874;SDS011;40468;42.128;24.750;2023-06-22T00:17:51;13.13;;;8.48;;
32874;SDS011;40468;42.128;24.750;2023-06-22T00:19:23;13.18;;;8.23;;
32874;SDS011;40468;42.128;24.750;2023-06-22T00:22:28;13.25;;;8.52;;
32874;SDS011;40468;42.128;24.750;2023-06-22T00:23:59;12.35;;;8.45;;
32874;SDS011;40468;42.128;24.750;2023-06-22T00:25:31;10.25;;;8.10;;
32874;SDS011;40468;42.128;24.750;2023-06-22T00:27:02;21.42;;;8.20;;
32874;SDS011;40468;42.128;24.750;2023-06-22T00:28:35;13.02;;;9.65;;
32874;SDS011;40468;42.128;24.750;2023-06-22T00:30:07;16.02;;;9.13;;
32874;SDS011;40468;42.128;24.750;2023-06-22T00:31:40;15.95;;;9.35;;
32874;SDS011;40468;42.128;24.750;2023-06-22T00:33:11;12.43;;;8.70;;
32874;SDS011;40468;42.128;24.750;2023-06-22T00:34:45;15.00;;;9.05;;
32874;SDS011;40468;42.128;24.750;2023-06-22T00:36:16;13.45;;;8.90;;
32874;SDS011;40468;42.128;24.750;2023-06-22T00:37:49;11.40;;;8.65;;
32874;SDS011;40468;42.128;24.750;2023-06-22T00:39:21;14.27;;;8.93;;
32874;SDS011;40468;42.128;24.750;2023-06-22T00:40:53;11.80;;;8.23;;
32874;SDS011;40468;42.128;24.750;2023-06-22T00:42:25;11.48;;;8.80;;
32874;SDS011;40468;42.128;24.750;2023-06-22T00:43:56;11.32;;;8.23;;
32874;SDS011;40468;42.128;24.750;2023-06-22T00:45:28;12.10;;;7.60;;
32874;SDS011;40468;42.128;24.750;2023-06-22T00:47:00;12.80;;;7.78;;
32874;SDS011;40468;42.128;24.750;2023-06-22T00:48:32;16.38;;;7.80;;
32874;SDS011;40468;42.128;24.750;2023-06-22T00:50:05;15.65;;;8.70;;
32874;SDS011;40468;42.128;24.750;2023-06-22T00:51:38;13.95;;;8.52;;
32874;SDS011;40468;42.128;24.750;2023-06-22T00:53:15;15.85;;;9.30;;
32874;SDS011;40468;42.128;24.750;2023-06-22T00:54:48;14.23;;;7.65;;
32874;SDS011;40468;42.128;24.750;2023-06-22T00:56:20;17.23;;;8.90;;
32874;SDS011;40468;42.128;24.750;2023-06-22T00:57:54;13.43;;;8.02;;
32874;SDS011;40468;42.128;24.750;2023-06-22T00:59:27;14.35;;;8.00;;
32874;SDS011;40468;42.128;24.750;2023-06-22T01:00:59;14.70;;;8.80;;
32874;SDS011;40468;42.128;24.750;2023-06-22T01:02:32;12.18;;;7.63;;
32874;SDS011;40468;42.128;24.750;2023-06-22T01:04:04;11.80;;;8.65;;
32874;SDS011;40468;42.128;24.750;2023-06-22T01:05:38;11.13;;;7.88;;
32874;SDS011;40468;42.128;24.750;2023-06-22T01:07:13;12.15;;;8.15;;
32874;SDS011;40468;42.128;24.750;2023-06-22T01:08:57;17.30;;;7.85;;
32874;SDS011;40468;42.128;24.750;2023-06-22T01:10:38;15.25;;;7.93;;
32874;SDS011;40468;42.128;24.750;2023-06-22T01:12:14;12.98;;;7.93;;
32874;SDS011;40468;42.128;24.750;2023-06-22T01:13:50;13.77;;;7.25;;
32874;SDS011;40468;42.128;24.750;2023-06-22T01:15:29;14.15;;;8.15;;
32874;SDS011;40468;42.128;24.750;2023-06-22T01:17:03;13.35;;;7.53;;
32874;SDS011;40468;42.128;24.750;2023-06-22T01:18:40;13.80;;;8.75;;
32874;SDS011;40468;42.128;24.750;2023-06-22T01:20:13;14.45;;;8.30;;
32874;SDS011;40468;42.128;24.750;2023-06-22T01:21:49;12.73;;;7.63;;
32874;SDS011;40468;42.128;24.750;2023-06-22T01:23:26;12.77;;;7.53;;
32874;SDS011;40468;42.128;24.750;2023-06-22T01:25:07;15.07;;;8.07;;
32874;SDS011;40468;42.128;24.750;2023-06-22T01:26:43;18.75;;;7.95;;
32874;SDS011;40468;42.128;24.750;2023-06-22T01:28:39;12.05;;;8.00;;
32874;SDS011;40468;42.128;24.750;2023-06-22T01:30:16;12.93;;;8.07;;
32874;SDS011;40468;42.128;24.750;2023-06-22T01:31:50;16.25;;;7.82;;
32874;SDS011;40468;42.128;24.750;2023-06-22T01:33:25;11.52;;;8.02;;
32874;SDS011;40468;42.128;24.750;2023-06-22T01:34:57;10.57;;;7.65;;
32874;SDS011;40468;42.128;24.750;2023-06-22T01:36:30;12.18;;;7.63;;
32874;SDS011;40468;42.128;24.750;2023-06-22T01:38:02;15.77;;;8.52;;
32874;SDS011;40468;42.128;24.750;2023-06-22T01:39:35;15.65;;;8.88;;
32874;SDS011;40468;42.128;24.750;2023-06-22T01:41:07;13.23;;;8.83;;
32874;SDS011;40468;42.128;24.750;2023-06-22T01:42:40;12.02;;;7.90;;
32874;SDS011;40468;42.128;24.750;2023-06-22T01:44:15;14.68;;;8.55;;
32874;SDS011;40468;42.128;24.750;2023-06-22T01:45:48;13.70;;;8.25;;
32874;SDS011;40468;42.128;24.750;2023-06-22T01:47:19;14.63;;;8.93;;
32874;SDS011;40468;42.128;24.750;2023-06-22T01:48:52;12.73;;;8.55;;
32874;SDS011;40468;42.128;24.750;2023-06-22T01:50:24;15.18;;;9.27;;
32874;SDS011;40468;42.128;24.750;2023-06-22T01:51:55;14.48;;;9.38;;
32874;SDS011;40468;42.128;24.750;2023-06-22T01:53:27;13.82;;;8.52;;
32874;SDS011;40468;42.128;24.750;2023-06-22T01:54:59;15.52;;;9.57;;
32874;SDS011;40468;42.128;24.750;2023-06-22T01:56:31;18.98;;;10.05;;
32874;SDS011;40468;42.128;24.750;2023-06-22T01:58:03;12.05;;;9.63;;
32874;SDS011;40468;42.128;24.750;2023-06-22T01:59:37;16.77;;;9.35;;
32874;SDS011;40468;42.128;24.750;2023-06-22T02:01:14;20.02;;;11.02;;
32874;SDS011;40468;42.128;24.750;2023-06-22T02:02:52;16.58;;;9.82;;
32874;SDS011;40468;42.128;24.750;2023-06-22T02:04:33;13.40;;;9.93;;
32874;SDS011;40468;42.128;24.750;2023-06-22T02:06:10;13.82;;;9.80;;
32874;SDS011;40468;42.128;24.750;2023-06-22T02:07:49;18.27;;;9.35;;
32874;SDS011;40468;42.128;24.750;2023-06-22T02:09:29;15.82;;;9.52;;
32874;SDS011;40468;42.128;24.750;2023-06-22T02:11:03;13.73;;;9.50;;
32874;SDS011;40468;42.128;24.750;2023-06-22T02:12:37;11.50;;;8.82;;
32874;SDS011;40468;42.128;24.750;2023-06-22T02:14:10;13.75;;;9.82;;
32874;SDS011;40468;42.128;24.750;2023-06-22T02:15:44;14.07;;;9.60;;
32874;SDS011;40468;42.128;24.750;2023-06-22T02:17:17;18.33;;;9.88;;
32874;SDS011;40468;42.128;24.750;2023-06-22T02:18:49;15.00;;;10.05;;
32874;SDS011;40468;42.128;24.750;2023-06-22T02:21:54;14.23;;;9.52;;
32874;SDS011;40468;42.128;24.750;2023-06-22T02:23:26;11.68;;;9.55;;
32874;SDS011;40468;42.128;24.750;2023-06-22T02:24:58;13.38;;;9.93;;
32874;SDS011;40468;42.128;24.750;2023-06-22T02:26:29;11.48;;;9.18;;
32874;SDS011;40468;42.128;24.750;2023-06-22T02:28:02;13.52;;;8.70;;
32874;SDS011;40468;42.128;24.750;2023-06-22T02:29:34;16.83;;;9.25;;
32874;SDS011;40468;42.128;24.750;2023-06-22T02:31:07;13.68;;;9.35;;
32874;SDS011;40468;42.128;24.750;2023-06-22T02:32:39;12.55;;;8.88;;
32874;SDS011;40468;42.128;24.750;2023-06-22T02:34:11;12.68;;;9.30;;
32874;SDS011;40468;42.128;24.750;2023-06-22T02:35:48;17.65;;;9.20;;
32874;SDS011;40468;42.128;24.750;2023-06-22T02:37:20;12.07;;;9.45;;
32874;SDS011;40468;42.128;24.750;2023-06-22T02:38:55;12.77;;;9.10;;
32874;SDS011;40468;42.128;24.750;2023-06-22T02:40:31;16.75;;;8.93;;
32874;SDS011;40468;42.128;24.750;2023-06-22T02:42:03;14.40;;;9.40;;
32874;SDS011;40468;42.128;24.750;2023-06-22T02:43:35;13.45;;;9.40;;
32874;SDS011;40468;42.128;24.750;2023-06-22T02:45:07;10.95;;;9.10;;
32874;SDS011;40468;42.128;24.750;2023-06-22T02:46:41;13.05;;;8.93;;
32874;SDS011;40468;42.128;24.750;2023-06-22T02:48:12;14.03;;;9.10;;
32874;SDS011;40468;42.128;24.750;2023-06-22T02:49:44;12.15;;;9.38;;
32874;SDS011;40468;42.128;24.750;2023-06-22T02:51:16;15.43;;;9.25;;
32874;SDS011;40468;42.128;24.750;2023-06-22T02:52:48;12.32;;;8.82;;
32874;SDS011;40468;42.128;24.750;2023-06-22T02:54:20;12.57;;;8.90;;
32874;SDS011;40468;42.128;24.750;2023-06-22T02:55:52;13.65;;;9.23;;
32874;SDS011;40468;42.128;24.750;2023-06-22T02:57:24;13.38;;;8.88;;
32874;SDS011;40468;42.128;24.750;2023-06-22T02:58:56;12.55;;;8.57;;
32874;SDS011;40468;42.128;24.750;2023-06-22T03:00:31;12.73;;;8.88;;
32874;SDS011;40468;42.128;24.750;2023-06-22T03:02:04;12.97;;;8.77;;
32874;SDS011;40468;42.128;24.750;2023-06-22T03:03:36;16.23;;;9.68;;
32874;SDS011;40468;42.128;24.750;2023-06-22T03:05:07;12.65;;;9.38;;
32874;SDS011;40468;42.128;24.750;2023-06-22T03:06:43;14.88;;;9.48;;
32874;SDS011;40468;42.128;24.750;2023-06-22T03:08:20;17.27;;;8.90;;
32874;SDS011;40468;42.128;24.750;2023-06-22T03:09:52;11.98;;;9.38;;
32874;SDS011;40468;42.128;24.750;2023-06-22T03:11:24;13.57;;;10.25;;
32874;SDS011;40468;42.128;24.750;2023-06-22T03:12:56;20.08;;;9.40;;
32874;SDS011;40468;42.128;24.750;2023-06-22T03:14:28;10.70;;;9.05;;
32874;SDS011;40468;42.128;24.750;2023-06-22T03:16:01;12.60;;;9.40;;
32874;SDS011;40468;42.128;24.750;2023-06-22T03:17:34;16.45;;;9.77;;
32874;SDS011;40468;42.128;24.750;2023-06-22T03:19:07;15.48;;;8.10;;
32874;SDS011;40468;42.128;24.750;2023-06-22T03:20:39;14.52;;;8.25;;
32874;SDS011;40468;42.128;24.750;2023-06-22T03:22:11;12.32;;;8.82;;
32874;SDS011;40468;42.128;24.750;2023-06-22T03:23:45;10.38;;;8.13;;
32874;SDS011;40468;42.128;24.750;2023-06-22T03:25:17;11.68;;;8.73;;
32874;SDS011;40468;42.128;24.750;2023-06-22T03:26:48;10.60;;;8.02;;
32874;SDS011;40468;42.128;24.750;2023-06-22T03:28:19;10.30;;;8.00;;
32874;SDS011;40468;42.128;24.750;2023-06-22T03:29:51;13.40;;;8.35;;
32874;SDS011;40468;42.128;24.750;2023-06-22T03:31:23;16.95;;;8.35;;
32874;SDS011;40468;42.128;24.750;2023-06-22T03:32:55;10.23;;;8.52;;
32874;SDS011;40468;42.128;24.750;2023-06-22T03:34:27;13.80;;;7.80;;
32874;SDS011;40468;42.128;24.750;2023-06-22T03:36:04;13.82;;;7.65;;
32874;SDS011;40468;42.128;24.750;2023-06-22T03:37:36;16.42;;;8.07;;
32874;SDS011;40468;42.128;24.750;2023-06-22T03:39:08;11.80;;;8.40;;
32874;SDS011;40468;42.128;24.750;2023-06-22T03:40:40;15.55;;;8.18;;
32874;SDS011;40468;42.128;24.750;2023-06-22T03:42:11;15.45;;;8.23;;
32874;SDS011;40468;42.128;24.750;2023-06-22T03:43:43;15.07;;;9.05;;
32874;SDS011;40468;42.128;24.750;2023-06-22T03:45:15;12.90;;;8.80;;
32874;SDS011;40468;42.128;24.750;2023-06-22T03:46:47;19.55;;;9.23;;
32874;SDS011;40468;42.128;24.750;2023-06-22T03:48:21;13.55;;;8.70;;
32874;SDS011;40468;42.128;24.750;2023-06-22T03:51:25;14.93;;;8.23;;
32874;SDS011;40468;42.128;24.750;2023-06-22T03:52:57;12.13;;;8.43;;
32874;SDS011;40468;42.128;24.750;2023-06-22T03:54:29;15.77;;;9.07;;
32874;SDS011;40468;42.128;24.750;2023-06-22T03:56:01;14.50;;;9.23;;
32874;SDS011;40468;42.128;24.750;2023-06-22T03:57:33;15.13;;;8.75;;
32874;SDS011;40468;42.128;24.750;2023-06-22T03:59:05;13.13;;;8.40;;
32874;SDS011;40468;42.128;24.750;2023-06-22T04:00:37;11.88;;;9.23;;
32874;SDS011;40468;42.128;24.750;2023-06-22T04:02:09;17.23;;;9.57;;
32874;SDS011;40468;42.128;24.750;2023-06-22T04:03:43;13.43;;;9.02;;
32874;SDS011;40468;42.128;24.750;2023-06-22T04:05:15;10.82;;;8.85;;
32874;SDS011;40468;42.128;24.750;2023-06-22T04:06:49;12.60;;;8.40;;
32874;SDS011;40468;42.128;24.750;2023-06-22T04:08:21;10.80;;;8.43;;
32874;SDS011;40468;42.128;24.750;2023-06-22T04:09:53;12.75;;;8.27;;
32874;SDS011;40468;42.128;24.750;2023-06-22T04:11:25;10.68;;;7.95;;
32874;SDS011;40468;42.128;24.750;2023-06-22T04:12:57;13.18;;;8.68;;
32874;SDS011;40468;42.128;24.750;2023-06-22T04:14:29;15.25;;;8.23;;
32874;SDS011;40468;42.128;24.750;2023-06-22T04:16:01;16.02;;;9.30;;
32874;SDS011;40468;42.128;24.750;2023-06-22T04:17:33;15.93;;;9.27;;
32874;SDS011;40468;42.128;24.750;2023-06-22T04:19:06;10.00;;;7.85;;
32874;SDS011;40468;42.128;24.750;2023-06-22T04:20:43;19.60;;;9.05;;
32874;SDS011;40468;42.128;24.750;2023-06-22T04:22:17;16.02;;;8.20;;
32874;SDS011;40468;42.128;24.750;2023-06-22T04:23:49;14.10;;;9.52;;
32874;SDS011;40468;42.128;24.750;2023-06-22T04:25:21;19.75;;;10.15;;
32874;SDS011;40468;42.128;24.750;2023-06-22T04:26:53;12.90;;;9.00;;
32874;SDS011;40468;42.128;24.750;2023-06-22T04:28:25;13.80;;;9.35;;
32874;SDS011;40468;42.128;24.750;2023-06-22T04:29:57;21.42;;;10.27;;
32874;SDS011;40468;42.128;24.750;2023-06-22T04:31:30;39.17;;;23.45;;
32874;SDS011;40468;42.128;24.750;2023-06-22T04:33:06;21.73;;;11.10;;
32874;SDS011;40468;42.128;24.750;2023-06-22T04:34:40;15.13;;;8.88;;
32874;SDS011;40468;42.128;24.750;2023-06-22T04:36:12;16.33;;;10.02;;
32874;SDS011;40468;42.128;24.750;2023-06-22T04:37:45;17.92;;;9.20;;
32874;SDS011;40468;42.128;24.750;2023-06-22T04:39:18;12.63;;;8.98;;
32874;SDS011;40468;42.128;24.750;2023-06-22T04:40:50;40.60;;;21.60;;
32874;SDS011;40468;42.128;24.750;2023-06-22T04:42:24;20.48;;;11.02;;
32874;SDS011;40468;42.128;24.750;2023-06-22T04:43:59;22.83;;;14.65;;
32874;SDS011;40468;42.128;24.750;2023-06-22T04:45:31;11.65;;;9.32;;
32874;SDS011;40468;42.128;24.750;2023-06-22T04:47:03;18.05;;;8.20;;
32874;SDS011;40468;42.128;24.750;2023-06-22T04:48:38;14.20;;;7.72;;
32874;SDS011;40468;42.128;24.750;2023-06-22T04:50:11;13.75;;;8.18;;
32874;SDS011;40468;42.128;24.750;2023-06-22T04:51:44;14.60;;;9.20;;
32874;SDS011;40468;42.128;24.750;2023-06-22T04:53:16;18.65;;;9.45;;
32874;SDS011;40468;42.128;24.750;2023-06-22T04:54:48;14.82;;;9.40;;
32874;SDS011;40468;42.128;24.750;2023-06-22T04:56:25;14.38;;;8.93;;
32874;SDS011;40468;42.128;24.750;2023-06-22T04:57:58;19.83;;;9.10;;
32874;SDS011;40468;42.128;24.750;2023-06-22T04:59:35;12.52;;;8.73;;
32874;SDS011;40468;42.128;24.750;2023-06-22T05:01:09;14.73;;;8.43;;
32874;SDS011;40468;42.128;24.750;2023-06-22T05:02:41;21.45;;;9.35;;
32874;SDS011;40468;42.128;24.750;2023-06-22T05:04:13;14.27;;;9.13;;
32874;SDS011;40468;42.128;24.750;2023-06-22T05:05:46;17.63;;;9.05;;
32874;SDS011;40468;42.128;24.750;2023-06-22T05:07:18;21.67;;;9.73;;
32874;SDS011;40468;42.128;24.750;2023-06-22T05:08:51;15.27;;;9.50;;
32874;SDS011;40468;42.128;24.750;2023-06-22T05:10:27;14.75;;;8.88;;
32874;SDS011;40468;42.128;24.750;2023-06-22T05:11:59;19.15;;;9.90;;
32874;SDS011;40468;42.128;24.750;2023-06-22T05:13:32;15.60;;;9.77;;
32874;SDS011;40468;42.128;24.750;2023-06-22T05:15:05;20.65;;;10.75;;
32874;SDS011;40468;42.128;24.750;2023-06-22T05:16:38;20.85;;;11.75;;
32874;SDS011;40468;42.128;24.750;2023-06-22T05:18:10;24.92;;;12.18;;
32874;SDS011;40468;42.128;24.750;2023-06-22T05:19:43;17.55;;;11.88;;
32874;SDS011;40468;42.128;24.750;2023-06-22T05:21:21;18.38;;;10.85;;
32874;SDS011;40468;42.128;24.750;2023-06-22T05:22:54;22.20;;;11.55;;
32874;SDS011;40468;42.128;24.750;2023-06-22T05:24:26;18.83;;;9.95;;
32874;SDS011;40468;42.128;24.750;2023-06-22T05:25:58;13.55;;;9.80;;
32874;SDS011;40468;42.128;24.750;2023-06-22T05:27:30;17.27;;;10.18;;
32874;SDS011;40468;42.128;24.750;2023-06-22T05:29:03;14.75;;;9.13;;
32874;SDS011;40468;42.128;24.750;2023-06-22T05:30:35;16.15;;;9.98;;
32874;SDS011;40468;42.128;24.750;2023-06-22T05:32:07;14.32;;;9.00;;
32874;SDS011;40468;42.128;24.750;2023-06-22T05:33:40;14.32;;;9.45;;
32874;SDS011;40468;42.128;24.750;2023-06-22T05:35:12;16.55;;;10.25;;
32874;SDS011;40468;42.128;24.750;2023-06-22T05:36:46;25.37;;;11.43;;
32874;SDS011;40468;42.128;24.750;2023-06-22T05:38:18;33.65;;;13.55;;
32874;SDS011;40468;42.128;24.750;2023-06-22T05:39:50;25.80;;;12.75;;
32874;SDS011;40468;42.128;24.750;2023-06-22T05:41:25;21.63;;;12.20;;
32874;SDS011;40468;42.128;24.750;2023-06-22T05:42:58;20.05;;;11.30;;
32874;SDS011;40468;42.128;24.750;2023-06-22T05:44:31;19.30;;;10.02;;
32874;SDS011;40468;42.128;24.750;2023-06-22T05:46:04;16.58;;;10.52;;
32874;SDS011;40468;42.128;24.750;2023-06-22T05:47:37;15.65;;;9.02;;
32874;SDS011;40468;42.128;24.750;2023-06-22T05:49:09;16.92;;;9.30;;
32874;SDS011;40468;42.128;24.750;2023-06-22T05:50:41;15.30;;;8.10;;
32874;SDS011;40468;42.128;24.750;2023-06-22T05:52:15;11.52;;;8.27;;
32874;SDS011;40468;42.128;24.750;2023-06-22T05:53:47;11.27;;;7.65;;
32874;SDS011;40468;42.128;24.750;2023-06-22T05:55:20;12.10;;;7.97;;
32874;SDS011;40468;42.128;24.750;2023-06-22T05:56:52;9.52;;;7.70;;
32874;SDS011;40468;42.128;24.750;2023-06-22T05:58:24;13.55;;;8.40;;
32874;SDS011;40468;42.128;24.750;2023-06-22T05:59:56;12.82;;;8.27;;
32874;SDS011;40468;42.128;24.750;2023-06-22T06:01:36;11.00;;;7.15;;
32874;SDS011;40468;42.128;24.750;2023-06-22T06:03:12;22.75;;;9.18;;
32874;SDS011;40468;42.128;24.750;2023-06-22T06:04:47;11.95;;;8.00;;
32874;SDS011;40468;42.128;24.750;2023-06-22T06:06:21;13.23;;;7.47;;
32874;SDS011;40468;42.128;24.750;2023-06-22T06:08:05;11.98;;;7.97;;
32874;SDS011;40468;42.128;24.750;2023-06-22T06:09:41;9.85;;;7.60;;
32874;SDS011;40468;42.128;24.750;2023-06-22T06:11:13;14.30;;;7.30;;
32874;SDS011;40468;42.128;24.750;2023-06-22T06:12:45;15.75;;;8.30;;
32874;SDS011;40468;42.128;24.750;2023-06-22T06:14:17;14.48;;;8.80;;
32874;SDS011;40468;42.128;24.750;2023-06-22T06:15:50;17.08;;;8.00;;
32874;SDS011;40468;42.128;24.750;2023-06-22T06:17:25;15.45;;;7.63;;
32874;SDS011;40468;42.128;24.750;2023-06-22T06:18:57;14.00;;;8.55;;
32874;SDS011;40468;42.128;24.750;2023-06-22T06:20:28;14.88;;;7.00;;
32874;SDS011;40468;42.128;24.750;2023-06-22T06:22:00;11.05;;;6.55;;
32874;SDS011;40468;42.128;24.750;2023-06-22T06:23:34;8.93;;;7.03;;
32874;SDS011;40468;42.128;24.750;2023-06-22T06:26:37;14.40;;;7.07;;
32874;SDS011;40468;42.128;24.750;2023-06-22T06:28:09;11.57;;;7.03;;
32874;SDS011;40468;42.128;24.750;2023-06-22T06:29:41;11.52;;;7.10;;
32874;SDS011;40468;42.128;24.750;2023-06-22T06:31:13;12.63;;;7.55;;
32874;SDS011;40468;42.128;24.750;2023-06-22T06:32:47;22.85;;;7.32;;
32874;SDS011;40468;42.128;24.750;2023-06-22T06:34:19;19.67;;;13.05;;
32874;SDS011;40468;42.128;24.750;2023-06-22T06:35:51;33.72;;;23.38;;
32874;SDS011;40468;42.128;24.750;2023-06-22T06:37:23;22.20;;;16.05;;
32874;SDS011;40468;42.128;24.750;2023-06-22T06:38:58;16.55;;;8.80;;
32874;SDS011;40468;42.128;24.750;2023-06-22T06:40:30;12.25;;;6.85;;
32874;SDS011;40468;42.128;24.750;2023-06-22T06:42:04;13.73;;;6.93;;
32874;SDS011;40468;42.128;24.750;2023-06-22T06:43:36;9.40;;;6.75;;
32874;SDS011;40468;42.128;24.750;2023-06-22T06:45:09;9.68;;;6.82;;
32874;SDS011;40468;42.128;24.750;2023-06-22T06:46:41;10.98;;;6.97;;
32874;SDS011;40468;42.128;24.750;2023-06-22T06:48:13;13.32;;;7.00;;
32874;SDS011;40468;42.128;24.750;2023-06-22T06:49:45;14.40;;;7.07;;
32874;SDS011;40468;42.128;24.750;2023-06-22T06:51:17;14.82;;;7.05;;
32874;SDS011;40468;42.128;24.750;2023-06-22T06:52:49;12.05;;;6.22;;
32874;SDS011;40468;42.128;24.750;2023-06-22T06:54:23;11.03;;;6.90;;
32874;SDS011;40468;42.128;24.750;2023-06-22T06:55:55;15.55;;;7.00;;
32874;SDS011;40468;42.128;24.750;2023-06-22T06:57:27;11.82;;;7.10;;
32874;SDS011;40468;42.128;24.750;2023-06-22T06:58:59;12.45;;;7.03;;
32874;SDS011;40468;42.128;24.750;2023-06-22T07:00:31;11.88;;;7.20;;
32874;SDS011;40468;42.128;24.750;2023-06-22T07:02:03;12.95;;;6.55;;
32874;SDS011;40468;42.128;24.750;2023-06-22T07:03:36;10.88;;;6.90;;
32874;SDS011;40468;42.128;24.750;2023-06-22T07:05:10;15.68;;;6.70;;
32874;SDS011;40468;42.128;24.750;2023-06-22T07:06:53;11.70;;;6.43;;
32874;SDS011;40468;42.128;24.750;2023-06-22T07:08:26;8.88;;;6.55;;
32874;SDS011;40468;42.128;24.750;2023-06-22T07:10:01;7.65;;;6.13;;
32874;SDS011;40468;42.128;24.750;2023-06-22T07:11:37;12.05;;;6.43;;
32874;SDS011;40468;42.128;24.750;2023-06-22T07:13:09;13.18;;;6.55;;
32874;SDS011;40468;42.128;24.750;2023-06-22T07:14:41;9.32;;;5.93;;
32874;SDS011;40468;42.128;24.750;2023-06-22T07:16:14;10.20;;;6.28;;
32874;SDS011;40468;42.128;24.750;2023-06-22T07:17:46;11.05;;;6.80;;
32874;SDS011;40468;42.128;24.750;2023-06-22T07:19:24;8.75;;;7.10;;
32874;SDS011;40468;42.128;24.750;2023-06-22T07:20:57;10.43;;;7.15;;
32874;SDS011;40468;42.128;24.750;2023-06-22T07:22:29;9.02;;;6.80;;
32874;SDS011;40468;42.128;24.750;2023-06-22T07:24:00;8.70;;;6.47;;
32874;SDS011;40468;42.128;24.750;2023-06-22T07:25:35;11.20;;;6.30;;
32874;SDS011;40468;42.128;24.750;2023-06-22T07:27:07;8.07;;;6.57;;
32874;SDS011;40468;42.128;24.750;2023-06-22T07:28:41;9.23;;;5.60;;
32874;SDS011;40468;42.128;24.750;2023-06-22T07:30:13;11.85;;;6.18;;
32874;SDS011;40468;42.128;24.750;2023-06-22T07:31:45;7.53;;;6.30;;
32874;SDS011;40468;42.128;24.750;2023-06-22T07:33:19;13.82;;;6.70;;
32874;SDS011;40468;42.128;24.750;2023-06-22T07:34:51;13.52;;;6.78;;
32874;SDS011;40468;42.128;24.750;2023-06-22T07:36:24;12.07;;;6.22;;
32874;SDS011;40468;42.128;24.750;2023-06-22T07:37:56;10.13;;;6.32;;
32874;SDS011;40468;42.128;24.750;2023-06-22T07:39:28;11.15;;;6.45;;
32874;SDS011;40468;42.128;24.750;2023-06-22T07:41:01;9.25;;;6.15;;
32874;SDS011;40468;42.128;24.750;2023-06-22T07:42:35;9.88;;;6.20;;
32874;SDS011;40468;42.128;24.750;2023-06-22T07:44:08;11.93;;;6.40;;
32874;SDS011;40468;42.128;24.750;2023-06-22T07:45:39;9.25;;;6.05;;
32874;SDS011;40468;42.128;24.750;2023-06-22T07:47:13;9.95;;;5.97;;
32874;SDS011;40468;42.128;24.750;2023-06-22T07:48:44;11.70;;;7.47;;
32874;SDS011;40468;42.128;24.750;2023-06-22T07:50:16;15.95;;;8.88;;
32874;SDS011;40468;42.128;24.750;2023-06-22T07:51:49;9.13;;;7.50;;
32874;SDS011;40468;42.128;24.750;2023-06-22T07:53:21;7.68;;;5.60;;
32874;SDS011;40468;42.128;24.750;2023-06-22T07:54:53;6.93;;;5.32;;
32874;SDS011;40468;42.128;24.750;2023-06-22T07:56:26;11.57;;;5.57;;
32874;SDS011;40468;42.128;24.750;2023-06-22T07:57:58;11.23;;;5.38;;
32874;SDS011;40468;42.128;24.750;2023-06-22T07:59:30;12.52;;;6.15;;
32874;SDS011;40468;42.128;24.750;2023-06-22T08:01:02;18.35;;;6.13;;
32874;SDS011;40468;42.128;24.750;2023-06-22T08:02:34;12.25;;;6.32;;
32874;SDS011;40468;42.128;24.750;2023-06-22T08:04:06;7.55;;;5.47;;
32874;SDS011;40468;42.128;24.750;2023-06-22T08:05:38;8.68;;;4.85;;
32874;SDS011;40468;42.128;24.750;2023-06-22T08:07:10;9.05;;;5.53;;
32874;SDS011;40468;42.128;24.750;2023-06-22T08:08:42;12.00;;;5.07;;
32874;SDS011;40468;42.128;24.750;2023-06-22T08:10:18;7.22;;;4.57;;
32874;SDS011;40468;42.128;24.750;2023-06-22T08:11:52;7.30;;;5.45;;
32874;SDS011;40468;42.128;24.750;2023-06-22T08:13:24;12.48;;;5.10;;
32874;SDS011;40468;42.128;24.750;2023-06-22T08:14:56;11.32;;;5.80;;
32874;SDS011;40468;42.128;24.750;2023-06-22T08:18:05;5.97;;;4.68;;
32874;SDS011;40468;42.128;24.750;2023-06-22T08:19:37;10.15;;;5.50;;
32874;SDS011;40468;42.128;24.750;2023-06-22T08:21:16;8.27;;;5.20;;
32874;SDS011;40468;42.128;24.750;2023-06-22T08:22:48;8.30;;;5.55;;
32874;SDS011;40468;42.128;24.750;2023-06-22T08:24:21;7.20;;;5.20;;
32874;SDS011;40468;42.128;24.750;2023-06-22T08:25:55;11.15;;;6.13;;
32874;SDS011;40468;42.128;24.750;2023-06-22T08:27:29;11.70;;;5.50;;
32874;SDS011;40468;42.128;24.750;2023-06-22T08:29:04;12.48;;;5.15;;
32874;SDS011;40468;42.128;24.750;2023-06-22T08:30:37;6.68;;;5.72;;
32874;SDS011;40468;42.128;24.750;2023-06-22T08:32:09;12.07;;;5.23;;
32874;SDS011;40468;42.128;24.750;2023-06-22T08:33:42;10.48;;;5.22;;
32874;SDS011;40468;42.128;24.750;2023-06-22T08:35:16;8.70;;;5.63;;
32874;SDS011;40468;42.128;24.750;2023-06-22T08:36:48;7.55;;;5.10;;
32874;SDS011;40468;42.128;24.750;2023-06-22T08:38:22;9.10;;;5.30;;
32874;SDS011;40468;42.128;24.750;2023-06-22T08:39:54;9.15;;;5.18;;
32874;SDS011;40468;42.128;24.750;2023-06-22T08:41:27;7.15;;;5.07;;
32874;SDS011;40468;42.128;24.750;2023-06-22T08:43:01;8.38;;;5.53;;
32874;SDS011;40468;42.128;24.750;2023-06-22T08:44:41;5.95;;;5.13;;
32874;SDS011;40468;42.128;24.750;2023-06-22T08:46:19;5.55;;;4.90;;
32874;SDS011;40468;42.128;24.750;2023-06-22T08:47:54;5.70;;;4.93;;
32874;SDS011;40468;42.128;24.750;2023-06-22T08:49:27;13.32;;;5.55;;
32874;SDS011;40468;42.128;24.750;2023-06-22T08:50:59;12.48;;;5.75;;
32874;SDS011;40468;42.128;24.750;2023-06-22T08:52:32;7.65;;;4.85;;
32874;SDS011;40468;42.128;24.750;2023-06-22T08:54:05;8.07;;;4.70;;
32874;SDS011;40468;42.128;24.750;2023-06-22T08:55:40;7.82;;;5.20;;
32874;SDS011;40468;42.128;24.750;2023-06-22T08:57:26;7.35;;;5.20;;
32874;SDS011;40468;42.128;24.750;2023-06-22T08:59:00;6.22;;;5.30;;
32874;SDS011;40468;42.128;24.750;2023-06-22T09:00:35;8.63;;;4.90;;
32874;SDS011;40468;42.128;24.750;2023-06-22T09:02:10;6.13;;;5.28;;
32874;SDS011;40468;42.128;24.750;2023-06-22T09:03:43;8.13;;;5.35;;
32874;SDS011;40468;42.128;24.750;2023-06-22T09:05:24;5.63;;;5.03;;
32874;SDS011;40468;42.128;24.750;2023-06-22T09:06:56;4.75;;;4.18;;
32874;SDS011;40468;42.128;24.750;2023-06-22T09:08:32;7.03;;;5.10;;
32874;SDS011;40468;42.128;24.750;2023-06-22T09:10:05;13.00;;;5.00;;
32874;SDS011;40468;42.128;24.750;2023-06-22T09:11:42;7.07;;;5.47;;
32874;SDS011;40468;42.128;24.750;2023-06-22T09:13:14;6.45;;;5.22;;
32874;SDS011;40468;42.128;24.750;2023-06-22T09:14:51;5.55;;;5.03;;